Rechercher aéroport 
image banner adimage banner adimage banner ad
image banner ad

16CA - Police Pistol Range

Situé à San Francisco, United States

ICAO - 16CA, IATA -

Données fournies par Airmate  

Information générale

Coordonnées: N37°43'12" W122°29'57"
Élévation : 24 feet MSL.
Variation magnétique : 16° East
Voir autres Aéroports à California

Données opérationnelles

Special qualification required
Heure actuelle UTC:
Heure actuelle locale:
Météo à : KSFO - San Francisco Intl ( 16 km )
METAR: KSFO 251056Z 29004KT 10SM FEW003 BKN012 13/12 A2995 RMK A02 SLP142 T01330117
TAF: KSFO 250848Z 2509/2612 29007KT P6SM FEW011 FEW200 FM251000 29005KT P6SM SCT011 FM251100 VRB05KT P6SM BKN011 FM251600 35006KT P6SM FEW011 FM252100 30015KT P6SM FEW200 FM260500 30010KT P6SM FEW010 BKN200 FM260900 29008KT P6SM SCT009 BKN200
Voir NOTAMs / SUP AIP / TFR affectant cet aéroport [VIEW]
Fréquences de communication: [VIEW]

Pistes:

Coordonnées de l'aéroport

Adresse: San Francisco United States

Vue satellite de 16CA